Kaisei Maru — JD3114 — position and weather

sailwx.info

Track history (hours):
 
Tides and Currents Weather Stations Pressure Air Temp Water Temp Dewpoint Dewpoint Depression Visibility Wind Speed Wind Dir Waves Ship Positions

Kaisei Maru

Last reported at 2017-Jan-19 06:15 UTC. Time now 2017-Jan-24 19:23 UTC.
Position N 34°37' E 134°60'.

Length 52 m; draft 3.9 m.

Type: Tanker. MMSI: 431001837.

Date/timePositionNaut miles runAvg speedWind from/ knotsBaromVisibWave heightAir tempDewpointWater temp
2017-Jan-19 06:15N 34°37' E 134°60'811.2
2017-Jan-19 05:33N 34°37' E 135°09'1111.1
2017-Jan-19 04:33N 34°40' E 135°22'3 2.7
2017-Jan-19 03:32N 34°42' E 135°24'0 0.0
2017-Jan-19 02:33N 34°42' E 135°24'0 0.0
2017-Jan-19 01:33N 34°42' E 135°24'0 0.0
2017-Jan-19 00:33N 34°42' E 135°24'0 0.0
2017-Jan-18 23:32N 34°42' E 135°24'2 2.4
2017-Jan-18 22:33N 34°40' E 135°23'0 0.0
2017-Jan-18 21:33N 34°40' E 135°23'0 0.0
2017-Jan-18 20:33N 34°40' E 135°23'0 0.0
2017-Jan-18 19:33N 34°40' E 135°23'0 0.0
2017-Jan-18 18:32N 34°40' E 135°23'0 0.0
2017-Jan-18 17:33N 34°40' E 135°23'0 0.0
2017-Jan-18 16:33N 34°40' E 135°23'0 0.0
2017-Jan-18 15:33N 34°40' E 135°23'0 0.0
2017-Jan-18 14:33N 34°40' E 135°23'0 0.0
2017-Jan-18 13:33N 34°40' E 135°23'0 0.0
2017-Jan-18 12:33N 34°40' E 135°23'0 0.0
2017-Jan-18 11:33N 34°40' E 135°23'0 0.0
2017-Jan-18 10:33N 34°40' E 135°23'0 0.0
2017-Jan-18 09:33N 34°40' E 135°23'6 5.7
2017-Jan-18 08:33N 34°35' E 135°19'9 8.9
2017-Jan-18 07:31N 34°26' E 135°19'0 0.0
2017-Jan-18 06:33N 34°26' E 135°19'0 0.0
2017-Jan-18 05:33N 34°26' E 135°19'1 0.3
2017-Jan-18 03:26N 34°26' E 135°19'0 0.3
2017-Jan-18 02:33N 34°27' E 135°19'1111.0
2017-Jan-18 01:33N 34°37' E 135°22'5 4.6
2017-Jan-18 00:33N 34°40' E 135°27'0 0.0
2017-Jan-17 23:33N 34°40' E 135°27'5 5.4
2017-Jan-17 22:33N 34°37' E 135°21'1111.0
2017-Jan-17 21:33N 34°35' E 135°08'  
2017-Jan-13 13:20N 34°37' E 135°01'911.2
2017-Jan-13 12:33N 34°35' E 135°11'1111.0
2017-Jan-13 11:33N 34°32' E 135°24'1 0.3
2017-Jan-13 09:08N 34°31' E 135°25'0 0.0
2017-Jan-13 07:32N 34°31' E 135°25'0 0.0
2017-Jan-13 06:33N 34°31' E 135°25'0 0.0
2017-Jan-13 05:26N 34°31' E 135°25'0 0.0
2017-Jan-13 04:28N 34°31' E 135°25'0 0.0
2017-Jan-13 02:26N 34°31' E 135°25'0 0.0
2017-Jan-13 01:33N 34°31' E 135°25'0 0.0
2017-Jan-13 00:30N 34°31' E 135°25'0 0.0
2017-Jan-12 23:33N 34°31' E 135°25'0 0.1
2017-Jan-12 22:33N 34°31' E 135°25'0 0.0
2017-Jan-12 21:31N 34°31' E 135°25'0 0.0
2017-Jan-12 20:32N 34°31' E 135°25'0 0.0
2017-Jan-12 19:33N 34°31' E 135°25'0 0.0
2017-Jan-12 18:33N 34°31' E 135°25'0 0.0
2017-Jan-12 17:33N 34°31' E 135°25'0 0.0
2017-Jan-12 16:33N 34°31' E 135°25'0 0.0
2017-Jan-12 14:13N 34°31' E 135°25'0 0.0
2017-Jan-12 12:29N 34°31' E 135°25'0 0.3
2017-Jan-12 11:32N 34°31' E 135°25'8 7.7
2017-Jan-12 10:32N 34°39' E 135°25'1 0.3
2017-Jan-12 05:33N 34°40' E 135°27'0 0.0
2017-Jan-12 04:32N 34°40' E 135°27'0 0.0
2017-Jan-12 03:31N 34°40' E 135°27'0 0.0
2017-Jan-12 02:21N 34°40' E 135°27'0 0.0
2017-Jan-12 01:28N 34°40' E 135°27'0 0.0
2017-Jan-11 23:30N 34°40' E 135°27'0 0.3
2017-Jan-11 22:33N 34°40' E 135°27'0 0.0
2017-Jan-11 21:33N 34°40' E 135°27'0 0.0
2017-Jan-11 20:33N 34°40' E 135°27'0 0.0
2017-Jan-11 19:32N 34°40' E 135°27'0 0.0
2017-Jan-11 18:33N 34°40' E 135°27'0 0.0
2017-Jan-11 17:33N 34°40' E 135°27'0 0.0
2017-Jan-11 16:33N 34°40' E 135°27'0 0.0
2017-Jan-11 15:31N 34°40' E 135°27'0 0.0
2017-Jan-11 14:33N 34°40' E 135°27'0 0.0
2017-Jan-11 13:33N 34°40' E 135°27'0 0.0
2017-Jan-11 12:33N 34°40' E 135°27'0 0.0
2017-Jan-11 11:33N 34°40' E 135°27'0 0.0
2017-Jan-11 10:33N 34°40' E 135°27'6 6.3
2017-Jan-11 09:33N 34°35' E 135°23'4 1.2
2017-Jan-11 06:12N 34°31' E 135°25'0 0.0
2017-Jan-11 05:33N 34°31' E 135°25'0 0.0
2017-Jan-11 04:31N 34°31' E 135°25'1 1.0
2017-Jan-11 03:33N 34°32' E 135°24'9 9.2
2017-Jan-11 02:33N 34°39' E 135°18'0 0.0
2017-Jan-11 01:33N 34°39' E 135°18'0 0.0
2017-Jan-11 00:33N 34°39' E 135°18'0 0.0
2017-Jan-10 23:33N 34°39' E 135°18'2 2.0
2017-Jan-10 22:33N 34°40' E 135°15'3 2.9
2017-Jan-10 21:33N 34°41' E 135°12'0 0.0
2017-Jan-10 20:33N 34°41' E 135°12'0 0.0
2017-Jan-10 19:33N 34°41' E 135°12'0 0.0
2017-Jan-10 18:33N 34°41' E 135°12'0 0.0
2017-Jan-10 17:33N 34°41' E 135°12'0 0.0
2017-Jan-10 16:33N 34°41' E 135°12'0 0.0
2017-Jan-10 15:33N 34°41' E 135°12'0 0.0
2017-Jan-10 14:33N 34°41' E 135°12'0 0.0
2017-Jan-10 13:33N 34°41' E 135°12'0 0.0
2017-Jan-10 12:33N 34°41' E 135°12'0 0.0
2017-Jan-10 11:33N 34°41' E 135°12'0 0.0
2017-Jan-10 10:33N 34°41' E 135°12'0 0.0
2017-Jan-10 09:33N 34°41' E 135°12'0 0.0
2017-Jan-10 08:33N 34°41' E 135°12'0 0.0
2017-Jan-10 07:33N 34°41' E 135°12'0 0.0
2017-Jan-10 06:33N 34°41' E 135°12'4 4.5
2017-Jan-10 05:33N 34°38' E 135°17'1010.0
2017-Jan-10 04:33N 34°31' E 135°25'0 0.0
2017-Jan-10 03:26N 34°31' E 135°25'0 0.0
2017-Jan-10 01:33N 34°31' E 135°25'0 0.0
2017-Jan-10 00:30N 34°31' E 135°25'0 0.0
2017-Jan-09 23:18N 34°31' E 135°25'0 0.1
2017-Jan-09 22:33N 34°31' E 135°25'0 0.0
2017-Jan-09 21:33N 34°31' E 135°25'0 0.0
2017-Jan-09 20:33N 34°31' E 135°25'0 0.0
2017-Jan-09 19:33N 34°31' E 135°25'0 0.0
2017-Jan-09 18:33N 34°31' E 135°25'0 0.0
2017-Jan-09 17:33N 34°31' E 135°25'0 0.0
2017-Jan-09 16:33N 34°31' E 135°25'0 0.0
2017-Jan-09 15:33N 34°31' E 135°25'0 0.0
2017-Jan-09 14:33N 34°31' E 135°25'0 0.0
2017-Jan-09 13:33N 34°31' E 135°25'0 0.0
2017-Jan-09 12:33N 34°31' E 135°25'0 0.0
2017-Jan-09 11:25N 34°31' E 135°25'8 9.0
2017-Jan-09 10:33N 34°37' E 135°18'3 3.4
2017-Jan-09 09:33N 34°40' E 135°18'0 0.0
2017-Jan-09 08:33N 34°40' E 135°18'0 0.0
2017-Jan-09 07:33N 34°40' E 135°18'2 2.1
2017-Jan-09 06:33N 34°41' E 135°15'  
Track history (hours):
 
Tides and Currents Weather Stations Pressure Air Temp Water Temp Dewpoint Dewpoint Depression Visibility Wind Speed Wind Dir Waves Ship Positions

Kaisei Maru

Last reported at 2017-Jan-19 06:15 UTC. Time now 2017-Jan-24 19:23 UTC.
Position N 34°37' E 134°60'.

Length 52 m; draft 3.9 m.

Type: Tanker. MMSI: 431001837.

Date/timePositionNaut miles runAvg speedWind from/ knotsBaromVisibWave heightAir tempDewpointWater temp
2017-Jan-19 06:15N 34°37' E 134°60'811.2
2017-Jan-19 05:33N 34°37' E 135°09'1111.1
2017-Jan-19 04:33N 34°40' E 135°22'3 2.7
2017-Jan-19 03:32N 34°42' E 135°24'0 0.0
2017-Jan-19 02:33N 34°42' E 135°24'0 0.0
2017-Jan-19 01:33N 34°42' E 135°24'0 0.0
2017-Jan-19 00:33N 34°42' E 135°24'0 0.0
2017-Jan-18 23:32N 34°42' E 135°24'2 2.4
2017-Jan-18 22:33N 34°40' E 135°23'0 0.0
2017-Jan-18 21:33N 34°40' E 135°23'0 0.0
2017-Jan-18 20:33N 34°40' E 135°23'0 0.0
2017-Jan-18 19:33N 34°40' E 135°23'0 0.0
2017-Jan-18 18:32N 34°40' E 135°23'0 0.0
2017-Jan-18 17:33N 34°40' E 135°23'0 0.0
2017-Jan-18 16:33N 34°40' E 135°23'0 0.0
2017-Jan-18 15:33N 34°40' E 135°23'0 0.0
2017-Jan-18 14:33N 34°40' E 135°23'0 0.0
2017-Jan-18 13:33N 34°40' E 135°23'0 0.0
2017-Jan-18 12:33N 34°40' E 135°23'0 0.0
2017-Jan-18 11:33N 34°40' E 135°23'0 0.0
2017-Jan-18 10:33N 34°40' E 135°23'0 0.0
2017-Jan-18 09:33N 34°40' E 135°23'6 5.7
2017-Jan-18 08:33N 34°35' E 135°19'9 8.9
2017-Jan-18 07:31N 34°26' E 135°19'0 0.0
2017-Jan-18 06:33N 34°26' E 135°19'0 0.0
2017-Jan-18 05:33N 34°26' E 135°19'1 0.3
2017-Jan-18 03:26N 34°26' E 135°19'0 0.3
2017-Jan-18 02:33N 34°27' E 135°19'1111.0
2017-Jan-18 01:33N 34°37' E 135°22'5 4.6
2017-Jan-18 00:33N 34°40' E 135°27'0 0.0
2017-Jan-17 23:33N 34°40' E 135°27'5 5.4
2017-Jan-17 22:33N 34°37' E 135°21'1111.0
2017-Jan-17 21:33N 34°35' E 135°08'  
2017-Jan-13 13:20N 34°37' E 135°01'911.2
2017-Jan-13 12:33N 34°35' E 135°11'1111.0
2017-Jan-13 11:33N 34°32' E 135°24'1 0.3
2017-Jan-13 09:08N 34°31' E 135°25'0 0.0
2017-Jan-13 07:32N 34°31' E 135°25'0 0.0
2017-Jan-13 06:33N 34°31' E 135°25'0 0.0
2017-Jan-13 05:26N 34°31' E 135°25'0 0.0
2017-Jan-13 04:28N 34°31' E 135°25'0 0.0
2017-Jan-13 02:26N 34°31' E 135°25'0 0.0
2017-Jan-13 01:33N 34°31' E 135°25'0 0.0
2017-Jan-13 00:30N 34°31' E 135°25'0 0.0
2017-Jan-12 23:33N 34°31' E 135°25'0 0.1
2017-Jan-12 22:33N 34°31' E 135°25'0 0.0
2017-Jan-12 21:31N 34°31' E 135°25'0 0.0
2017-Jan-12 20:32N 34°31' E 135°25'0 0.0
2017-Jan-12 19:33N 34°31' E 135°25'0 0.0
2017-Jan-12 18:33N 34°31' E 135°25'0 0.0
2017-Jan-12 17:33N 34°31' E 135°25'0 0.0
2017-Jan-12 16:33N 34°31' E 135°25'0 0.0
2017-Jan-12 14:13N 34°31' E 135°25'0 0.0
2017-Jan-12 12:29N 34°31' E 135°25'0 0.3
2017-Jan-12 11:32N 34°31' E 135°25'8 7.7
2017-Jan-12 10:32N 34°39' E 135°25'1 0.3
2017-Jan-12 05:33N 34°40' E 135°27'0 0.0
2017-Jan-12 04:32N 34°40' E 135°27'0 0.0
2017-Jan-12 03:31N 34°40' E 135°27'0 0.0
2017-Jan-12 02:21N 34°40' E 135°27'0 0.0
2017-Jan-12 01:28N 34°40' E 135°27'0 0.0
2017-Jan-11 23:30N 34°40' E 135°27'0 0.3
2017-Jan-11 22:33N 34°40' E 135°27'0 0.0
2017-Jan-11 21:33N 34°40' E 135°27'0 0.0
2017-Jan-11 20:33N 34°40' E 135°27'0 0.0
2017-Jan-11 19:32N 34°40' E 135°27'0 0.0
2017-Jan-11 18:33N 34°40' E 135°27'0 0.0
2017-Jan-11 17:33N 34°40' E 135°27'0 0.0
2017-Jan-11 16:33N 34°40' E 135°27'0 0.0
2017-Jan-11 15:31N 34°40' E 135°27'0 0.0
2017-Jan-11 14:33N 34°40' E 135°27'0 0.0
2017-Jan-11 13:33N 34°40' E 135°27'0 0.0
2017-Jan-11 12:33N 34°40' E 135°27'0 0.0
2017-Jan-11 11:33N 34°40' E 135°27'0 0.0
2017-Jan-11 10:33N 34°40' E 135°27'6 6.3
2017-Jan-11 09:33N 34°35' E 135°23'4 1.2
2017-Jan-11 06:12N 34°31' E 135°25'0 0.0
2017-Jan-11 05:33N 34°31' E 135°25'0 0.0
2017-Jan-11 04:31N 34°31' E 135°25'1 1.0
2017-Jan-11 03:33N 34°32' E 135°24'9 9.2
2017-Jan-11 02:33N 34°39' E 135°18'0 0.0
2017-Jan-11 01:33N 34°39' E 135°18'0 0.0
2017-Jan-11 00:33N 34°39' E 135°18'0 0.0
2017-Jan-10 23:33N 34°39' E 135°18'2 2.0
2017-Jan-10 22:33N 34°40' E 135°15'3 2.9
2017-Jan-10 21:33N 34°41' E 135°12'0 0.0
2017-Jan-10 20:33N 34°41' E 135°12'0 0.0
2017-Jan-10 19:33N 34°41' E 135°12'0 0.0
2017-Jan-10 18:33N 34°41' E 135°12'0 0.0
2017-Jan-10 17:33N 34°41' E 135°12'0 0.0
2017-Jan-10 16:33N 34°41' E 135°12'0 0.0
2017-Jan-10 15:33N 34°41' E 135°12'0 0.0
2017-Jan-10 14:33N 34°41' E 135°12'0 0.0
2017-Jan-10 13:33N 34°41' E 135°12'0 0.0
2017-Jan-10 12:33N 34°41' E 135°12'0 0.0
2017-Jan-10 11:33N 34°41' E 135°12'0 0.0
2017-Jan-10 10:33N 34°41' E 135°12'0 0.0
2017-Jan-10 09:33N 34°41' E 135°12'0 0.0
2017-Jan-10 08:33N 34°41' E 135°12'0 0.0
2017-Jan-10 07:33N 34°41' E 135°12'0 0.0
2017-Jan-10 06:33N 34°41' E 135°12'4 4.5
2017-Jan-10 05:33N 34°38' E 135°17'1010.0
2017-Jan-10 04:33N 34°31' E 135°25'0 0.0
2017-Jan-10 03:26N 34°31' E 135°25'0 0.0
2017-Jan-10 01:33N 34°31' E 135°25'0 0.0
2017-Jan-10 00:30N 34°31' E 135°25'0 0.0
2017-Jan-09 23:18N 34°31' E 135°25'0 0.1
2017-Jan-09 22:33N 34°31' E 135°25'0 0.0
2017-Jan-09 21:33N 34°31' E 135°25'0 0.0
2017-Jan-09 20:33N 34°31' E 135°25'0 0.0
2017-Jan-09 19:33N 34°31' E 135°25'0 0.0
2017-Jan-09 18:33N 34°31' E 135°25'0 0.0
2017-Jan-09 17:33N 34°31' E 135°25'0 0.0
2017-Jan-09 16:33N 34°31' E 135°25'0 0.0
2017-Jan-09 15:33N 34°31' E 135°25'0 0.0
2017-Jan-09 14:33N 34°31' E 135°25'0 0.0
2017-Jan-09 13:33N 34°31' E 135°25'0 0.0
2017-Jan-09 12:33N 34°31' E 135°25'0 0.0
2017-Jan-09 11:25N 34°31' E 135°25'8 9.0
2017-Jan-09 10:33N 34°37' E 135°18'3 3.4
2017-Jan-09 09:33N 34°40' E 135°18'0 0.0
2017-Jan-09 08:33N 34°40' E 135°18'0 0.0
2017-Jan-09 07:33N 34°40' E 135°18'2 2.1
2017-Jan-09 06:33N 34°41' E 135°15'  

Dump ship's entire track history